Terminal Aerodrome Forecast
Issued by NWS Houston/Galveston, TX

Home | Current Version | Previous Version | Text Only | Print | Product List | Glossary On
Versions: 1 2 3 4 5 6 7 8 9 10 11 12
000
FTUS44 KHGX 011723
TAFGLS
TAF
KGLS 011723Z 0118/0218 02010KT P6SM BKN250
     FM012000 10007KT P6SM BKN250
     FM012300 11005KT P6SM SCT250
     FM020700 03005KT P6SM SCT250=

USA.gov is the U.S. government's official web portal to all federal, state and local government web resources and services.